createdAt,value
2022-08-30T00:00:50.039Z,54.55
2022-08-30T00:02:21.713Z,54.53
2022-08-30T00:03:58.596Z,54.33
2022-08-30T00:05:30.860Z,54.52
2022-08-30T00:07:04.087Z,54.38
2022-08-30T00:08:35.950Z,54.63
2022-08-30T00:10:07.865Z,54.42
2022-08-30T00:11:39.568Z,54.64
2022-08-30T00:13:12.393Z,54.74
2022-08-30T00:14:44.153Z,54.75
2022-08-30T00:16:15.934Z,54.86
2022-08-30T00:17:47.614Z,54.90
2022-08-30T00:19:19.224Z,54.98
2022-08-30T00:20:51.051Z,55.22
2022-08-30T00:22:23.396Z,55.01
2022-08-30T00:23:55.380Z,54.97
2022-08-30T00:25:27.090Z,54.75
2022-08-30T00:26:59.220Z,54.76
2022-08-30T00:28:32.198Z,54.75
2022-08-30T00:30:04.422Z,54.97
2022-08-30T00:31:36.014Z,54.96
2022-08-30T00:33:08.052Z,54.90
2022-08-30T00:34:39.904Z,54.94
2022-08-30T00:36:11.545Z,54.93
2022-08-30T00:37:44.631Z,54.97
2022-08-30T00:39:16.988Z,55.09
2022-08-30T00:40:48.881Z,55.09
2022-08-30T00:42:21.082Z,55.15
2022-08-30T00:43:52.646Z,55.25
2022-08-30T00:45:25.743Z,55.10
2022-08-30T00:46:57.335Z,55.04
2022-08-30T00:48:30.621Z,55.05
2022-08-30T00:50:02.303Z,55.19
2022-08-30T00:51:33.962Z,55.16
2022-08-30T00:53:06.447Z,55.16
2022-08-30T00:54:38.130Z,55.08
2022-08-30T00:56:10.304Z,55.16
2022-08-30T00:57:42.474Z,55.09
2022-08-30T00:59:14.155Z,55.29
2022-08-30T01:00:45.843Z,55.22
2022-08-30T01:02:18.700Z,55.34
2022-08-30T01:03:50.636Z,55.21
2022-08-30T01:05:22.552Z,55.38
2022-08-30T01:06:54.670Z,55.23
2022-08-30T01:08:26.241Z,55.22
2022-08-30T01:09:57.877Z,55.20
2022-08-30T01:11:29.438Z,55.28
2022-08-30T01:13:01.333Z,55.28
2022-08-30T01:14:33.895Z,55.43
2022-08-30T01:16:06.922Z,55.56
2022-08-30T01:17:41.614Z,55.70
2022-08-30T01:19:21.846Z,55.76
2022-08-30T01:20:53.717Z,55.58
2022-08-30T01:22:28.867Z,55.74
2022-08-30T01:24:00.458Z,55.67
2022-08-30T01:25:32.236Z,55.56
2022-08-30T01:27:04.155Z,55.51
2022-08-30T01:28:35.784Z,55.46
2022-08-30T01:30:07.579Z,55.51
2022-08-30T01:31:39.272Z,55.57
2022-08-30T01:33:10.972Z,55.57
2022-08-30T01:34:43.499Z,55.54
2022-08-30T01:36:15.330Z,55.47
2022-08-30T01:37:47.164Z,55.49
2022-08-30T01:39:19.232Z,55.66
2022-08-30T01:40:50.850Z,55.72
2022-08-30T01:42:22.680Z,55.91
2022-08-30T01:43:55.341Z,55.75
2022-08-30T01:45:26.981Z,55.78
2022-08-30T01:46:58.889Z,56.07
2022-08-30T01:48:31.097Z,56.23
2022-08-30T01:50:03.689Z,56.36
2022-08-30T01:51:35.522Z,56.33
2022-08-30T01:53:07.225Z,56.31
2022-08-30T01:54:39.671Z,56.35
2022-08-30T01:56:11.641Z,56.18
2022-08-30T01:57:43.315Z,56.06
2022-08-30T01:59:14.945Z,56.19
2022-08-30T02:00:46.719Z,56.25
2022-08-30T02:02:19.063Z,56.36
2022-08-30T02:03:50.968Z,56.33
2022-08-30T02:05:22.874Z,56.35
2022-08-30T02:06:54.619Z,56.56
2022-08-30T02:08:26.437Z,56.29
2022-08-30T02:10:00.834Z,56.48
2022-08-30T02:11:32.387Z,56.51
2022-08-30T02:13:04.013Z,56.57
2022-08-30T02:14:35.959Z,56.42
2022-08-30T02:16:08.990Z,56.49
2022-08-30T02:17:41.793Z,56.45
2022-08-30T02:19:13.419Z,56.42
2022-08-30T02:20:46.546Z,56.26
2022-08-30T02:22:18.277Z,56.38
2022-08-30T02:23:50.243Z,56.59
2022-08-30T02:25:21.909Z,56.43
2022-08-30T02:26:53.612Z,56.29
2022-08-30T02:28:25.940Z,56.46
2022-08-30T02:29:57.511Z,56.40
2022-08-30T02:31:29.268Z,56.48
2022-08-30T02:33:00.975Z,56.58
2022-08-30T02:34:32.584Z,56.55
2022-08-30T02:36:05.169Z,56.79
2022-08-30T02:37:36.909Z,56.91
2022-08-30T02:39:09.015Z,56.94
2022-08-30T02:40:40.715Z,56.77
2022-08-30T02:42:12.657Z,56.47
2022-08-30T02:43:44.330Z,56.80
2022-08-30T02:45:16.103Z,57.31
2022-08-30T02:46:50.842Z,56.86
2022-08-30T02:48:22.525Z,56.93
2022-08-30T02:49:54.163Z,57.07
2022-08-30T02:51:26.196Z,57.21
2022-08-30T02:52:57.698Z,56.92
2022-08-30T02:54:29.606Z,57.24
2022-08-30T02:56:01.160Z,57.19
2022-08-30T02:57:33.595Z,57.45
2022-08-30T02:59:06.130Z,57.27
2022-08-30T03:00:37.811Z,57.50
2022-08-30T03:02:09.455Z,57.57
2022-08-30T03:03:41.808Z,57.33
2022-08-30T03:05:13.898Z,57.50
2022-08-30T03:06:45.924Z,57.25
2022-08-30T03:08:17.573Z,57.30
2022-08-30T03:09:49.246Z,57.25
2022-08-30T03:11:22.606Z,57.19
2022-08-30T03:12:55.485Z,57.38
2022-08-30T03:14:28.216Z,57.43
2022-08-30T03:15:59.826Z,57.26
2022-08-30T03:17:31.551Z,57.31
2022-08-30T03:19:03.549Z,57.06
2022-08-30T03:20:38.867Z,57.39
2022-08-30T03:22:10.800Z,57.28
2022-08-30T03:23:42.538Z,57.52
2022-08-30T03:25:14.201Z,57.46
2022-08-30T03:26:46.670Z,57.42
2022-08-30T03:28:18.568Z,57.25
2022-08-30T03:29:50.211Z,57.27
2022-08-30T03:31:21.990Z,57.36
2022-08-30T03:32:53.618Z,57.48
2022-08-30T03:34:25.483Z,57.45
2022-08-30T03:35:57.165Z,57.29
2022-08-30T03:37:28.788Z,57.43
2022-08-30T03:39:00.432Z,57.75
2022-08-30T03:40:32.314Z,57.72
2022-08-30T03:42:04.853Z,57.54
2022-08-30T03:43:36.593Z,57.54
2022-08-30T03:45:08.882Z,57.70
2022-08-30T03:46:44.061Z,57.88
2022-08-30T03:48:15.936Z,57.54
2022-08-30T03:49:47.518Z,57.76
2022-08-30T03:51:19.210Z,57.53
2022-08-30T03:52:50.927Z,57.78
2022-08-30T03:54:24.839Z,57.60
2022-08-30T03:55:57.405Z,57.80
2022-08-30T03:57:29.561Z,57.73
2022-08-30T03:59:02.930Z,57.96
2022-08-30T04:00:35.478Z,58.11
2022-08-30T04:02:08.247Z,58.07
2022-08-30T04:03:39.872Z,57.95
2022-08-30T04:05:11.684Z,57.98
2022-08-30T04:06:45.869Z,58.16
2022-08-30T04:08:17.503Z,57.87
2022-08-30T04:09:49.133Z,58.10
2022-08-30T04:11:21.589Z,58.10
2022-08-30T04:12:54.014Z,58.17
2022-08-30T04:14:25.757Z,58.31
2022-08-30T04:15:57.479Z,58.26
2022-08-30T04:17:29.225Z,58.08
2022-08-30T04:19:00.755Z,58.19
2022-08-30T04:20:32.422Z,58.15
2022-08-30T04:22:05.007Z,58.31
2022-08-30T04:23:37.041Z,58.48
2022-08-30T04:25:08.900Z,58.27
2022-08-30T04:26:47.334Z,58.22
2022-08-30T04:28:18.878Z,58.14
2022-08-30T04:29:50.768Z,58.20
2022-08-30T04:31:22.425Z,58.38
2022-08-30T04:32:58.487Z,58.18
2022-08-30T04:34:30.921Z,58.36
2022-08-30T04:36:05.235Z,58.44
2022-08-30T04:37:37.509Z,58.48
2022-08-30T04:39:10.644Z,58.44
2022-08-30T04:40:43.124Z,58.42
2022-08-30T04:42:16.361Z,58.59
2022-08-30T04:43:49.211Z,58.34
2022-08-30T04:45:21.053Z,58.52
2022-08-30T04:46:52.805Z,58.56
2022-08-30T04:48:24.637Z,58.40
2022-08-30T04:49:56.454Z,58.37
2022-08-30T04:51:28.088Z,58.47
2022-08-30T04:52:59.940Z,58.44
2022-08-30T04:54:31.750Z,58.50
2022-08-30T04:56:07.457Z,58.51
2022-08-30T04:57:40.492Z,58.40
2022-08-30T04:59:12.211Z,58.58
2022-08-30T05:00:44.258Z,58.61
2022-08-30T05:02:15.956Z,58.52
2022-08-30T05:03:48.338Z,58.43
2022-08-30T05:05:38.587Z,58.52
2022-08-30T05:07:10.411Z,58.79
2022-08-30T05:08:46.223Z,58.48
2022-08-30T05:10:18.559Z,58.36
2022-08-30T05:11:50.143Z,58.53
2022-08-30T05:13:24.339Z,58.60
2022-08-30T05:15:07.303Z,58.36
2022-08-30T05:16:39.058Z,58.48
2022-08-30T05:18:11.562Z,58.45
2022-08-30T05:19:46.663Z,58.56
2022-08-30T05:21:21.952Z,58.44
2022-08-30T05:22:54.195Z,58.30
2022-08-30T05:24:26.206Z,58.54
2022-08-30T05:25:58.002Z,58.38
2022-08-30T05:27:29.963Z,58.36
2022-08-30T05:29:01.703Z,58.29
2022-08-30T05:30:34.139Z,58.24
2022-08-30T05:32:05.890Z,58.34
2022-08-30T05:33:38.896Z,58.22
2022-08-30T05:35:11.619Z,58.39
2022-08-30T05:36:43.238Z,58.73
2022-08-30T05:38:15.026Z,58.75
2022-08-30T05:39:51.403Z,58.45
2022-08-30T05:41:23.546Z,58.40
2022-08-30T05:42:58.398Z,58.40
2022-08-30T05:44:30.038Z,58.41
2022-08-30T05:46:02.059Z,58.36
2022-08-30T05:47:33.907Z,58.62
2022-08-30T05:49:05.873Z,58.58
2022-08-30T05:50:40.087Z,58.47
2022-08-30T05:52:12.967Z,58.63
2022-08-30T05:53:44.861Z,58.59
2022-08-30T05:55:16.542Z,58.64
2022-08-30T05:56:48.798Z,58.59
2022-08-30T05:58:20.905Z,58.72
2022-08-30T05:59:52.853Z,58.77
2022-08-30T06:01:30.609Z,58.73
2022-08-30T06:03:03.413Z,58.58
2022-08-30T06:04:36.779Z,58.68
2022-08-30T06:06:08.992Z,58.91
2022-08-30T06:07:40.949Z,58.94
2022-08-30T06:09:13.050Z,58.75
2022-08-30T06:10:59.055Z,58.67
2022-08-30T06:12:34.589Z,58.58
2022-08-30T06:14:07.659Z,58.71
2022-08-30T06:15:39.560Z,58.62
2022-08-30T06:17:11.503Z,58.50
2022-08-30T06:18:43.135Z,58.21
2022-08-30T06:20:18.243Z,58.17
2022-08-30T06:21:50.316Z,58.30
2022-08-30T06:23:22.572Z,58.18
2022-08-30T06:24:57.382Z,58.20
2022-08-30T06:26:29.921Z,58.10
2022-08-30T06:28:02.675Z,57.94
2022-08-30T06:29:34.436Z,57.87
2022-08-30T06:31:09.655Z,57.60
2022-08-30T06:32:41.558Z,57.51
2022-08-30T06:34:13.797Z,57.42
2022-08-30T06:35:58.160Z,57.55
2022-08-30T06:37:33.098Z,57.57
2022-08-30T06:39:04.782Z,57.51
2022-08-30T06:40:37.761Z,57.38
2022-08-30T06:42:09.914Z,57.39
2022-08-30T06:43:45.506Z,57.28
2022-08-30T06:45:20.720Z,57.58
2022-08-30T06:46:52.468Z,57.30
2022-08-30T06:48:24.186Z,57.36
2022-08-30T06:49:55.894Z,57.48
2022-08-30T06:51:31.692Z,57.49
2022-08-30T06:53:06.327Z,57.48
2022-08-30T06:54:37.902Z,57.34
2022-08-30T06:56:09.973Z,57.50
2022-08-30T06:57:41.891Z,57.39
2022-08-30T06:59:13.986Z,57.30
2022-08-30T07:00:45.568Z,57.35
2022-08-30T07:02:17.221Z,57.32
2022-08-30T07:03:48.851Z,57.34
2022-08-30T07:05:23.349Z,57.32
2022-08-30T07:06:54.989Z,57.27
2022-08-30T07:08:27.294Z,57.29
2022-08-30T07:09:58.931Z,57.24
2022-08-30T07:11:34.983Z,57.36
2022-08-30T07:13:06.999Z,57.21
2022-08-30T07:14:38.826Z,57.29
2022-08-30T07:16:11.887Z,57.06
2022-08-30T07:18:02.311Z,57.16
2022-08-30T07:19:33.956Z,57.20
2022-08-30T07:21:06.935Z,56.99
2022-08-30T07:22:38.752Z,56.98
2022-08-30T07:24:11.676Z,56.94
2022-08-30T07:25:43.381Z,57.02
2022-08-30T07:27:15.039Z,56.92
2022-08-30T07:28:47.068Z,56.82
2022-08-30T07:30:20.606Z,56.83
2022-08-30T07:31:52.624Z,56.67
2022-08-30T07:33:24.409Z,56.68
2022-08-30T07:34:56.055Z,56.57
2022-08-30T07:36:30.311Z,56.64
2022-08-30T07:38:02.098Z,56.35
2022-08-30T07:39:37.927Z,56.32
2022-08-30T07:41:17.085Z,56.31
2022-08-30T07:42:48.894Z,56.26
2022-08-30T07:44:23.144Z,56.43
2022-08-30T07:46:00.824Z,56.17
2022-08-30T07:47:32.551Z,56.54
2022-08-30T07:49:04.571Z,56.73
2022-08-30T07:50:36.404Z,57.09
2022-08-30T07:52:08.325Z,57.15
2022-08-30T07:53:40.096Z,57.30
2022-08-30T07:55:11.817Z,57.30
2022-08-30T07:56:43.445Z,57.26
2022-08-30T07:58:15.482Z,57.46
2022-08-30T07:59:47.536Z,57.56
2022-08-30T08:01:19.579Z,57.38
2022-08-30T08:02:51.421Z,57.45
2022-08-30T08:04:23.330Z,57.55
2022-08-30T08:05:56.113Z,57.45
2022-08-30T08:07:27.740Z,57.41
2022-08-30T08:09:02.645Z,57.24
2022-08-30T08:10:36.003Z,57.08
2022-08-30T08:12:07.770Z,56.94
2022-08-30T08:13:45.202Z,56.91
2022-08-30T08:15:26.769Z,57.04
2022-08-30T08:16:58.464Z,56.81
2022-08-30T08:18:32.027Z,56.73
2022-08-30T08:20:04.371Z,56.90
2022-08-30T08:21:36.524Z,56.99
2022-08-30T08:23:08.279Z,56.65
2022-08-30T08:24:42.207Z,56.72
2022-08-30T08:26:14.000Z,57.16
2022-08-30T08:27:49.227Z,56.92
2022-08-30T08:29:21.176Z,56.86
2022-08-30T08:30:53.065Z,57.10
2022-08-30T08:32:25.022Z,56.99
2022-08-30T08:33:57.252Z,56.75
2022-08-30T08:35:29.240Z,56.54
2022-08-30T08:37:01.178Z,56.76
2022-08-30T08:38:32.871Z,56.42
2022-08-30T08:40:04.920Z,56.26
2022-08-30T08:41:47.256Z,56.19
2022-08-30T08:43:19.619Z,55.86
2022-08-30T08:44:54.657Z,56.29
2022-08-30T08:46:35.373Z,56.06
2022-08-30T08:48:10.697Z,56.09
2022-08-30T08:49:45.174Z,56.11
2022-08-30T08:51:36.695Z,55.96
2022-08-30T08:53:45.375Z,55.87
2022-08-30T08:55:22.518Z,55.59
2022-08-30T08:56:54.741Z,55.52
2022-08-30T08:58:35.884Z,55.46
2022-08-30T09:00:08.538Z,55.08
2022-08-30T09:01:40.259Z,54.75
2022-08-30T09:03:12.974Z,54.68
2022-08-30T09:04:44.917Z,54.57
2022-08-30T09:06:20.799Z,54.49
2022-08-30T09:07:53.318Z,54.40
2022-08-30T09:09:30.219Z,54.09
2022-08-30T09:11:02.699Z,54.35
2022-08-30T09:12:34.790Z,54.07
2022-08-30T09:14:10.692Z,53.91
2022-08-30T09:15:45.590Z,53.99
2022-08-30T09:17:17.866Z,53.63
2022-08-30T09:18:54.626Z,53.39
2022-08-30T09:20:28.110Z,53.44
2022-08-30T09:22:00.761Z,53.48
2022-08-30T09:23:33.383Z,53.26
2022-08-30T09:25:07.162Z,53.26
2022-08-30T09:26:38.876Z,53.15
2022-08-30T09:28:11.854Z,52.97
2022-08-30T09:29:51.040Z,52.65
2022-08-30T09:31:23.583Z,52.56
2022-08-30T09:32:55.552Z,52.24
2022-08-30T09:34:27.269Z,52.16
2022-08-30T09:36:09.831Z,51.99
2022-08-30T09:37:45.418Z,51.88
2022-08-30T09:39:21.552Z,51.84
2022-08-30T09:41:00.354Z,51.65
2022-08-30T09:42:32.126Z,51.72
2022-08-30T09:44:24.397Z,51.68
2022-08-30T09:46:00.189Z,51.75
2022-08-30T09:47:32.573Z,51.69
2022-08-30T09:49:04.291Z,51.86
2022-08-30T09:50:39.515Z,51.88
2022-08-30T09:52:18.357Z,51.62
2022-08-30T09:54:18.380Z,51.76
2022-08-30T09:55:53.321Z,51.68
2022-08-30T09:57:37.935Z,51.42
2022-08-30T09:59:25.129Z,51.70
2022-08-30T10:01:16.426Z,51.74
2022-08-30T10:02:51.537Z,51.88
2022-08-30T10:04:30.849Z,51.80
2022-08-30T10:06:05.972Z,51.76
2022-08-30T10:07:40.455Z,51.65
2022-08-30T10:09:16.163Z,51.54
2022-08-30T10:10:55.540Z,51.39
2022-08-30T10:12:27.509Z,51.23
2022-08-30T10:14:02.590Z,51.12
2022-08-30T10:15:41.561Z,50.98
2022-08-30T10:17:13.275Z,50.92
2022-08-30T10:19:00.534Z,51.05
2022-08-30T10:20:34.109Z,50.82
2022-08-30T10:22:09.022Z,50.75
2022-08-30T10:24:01.910Z,50.66
2022-08-30T10:25:34.423Z,50.70
2022-08-30T10:27:11.597Z,50.88
2022-08-30T10:28:47.095Z,51.07
2022-08-30T10:30:19.000Z,51.08
2022-08-30T10:31:50.824Z,51.24
2022-08-30T10:33:31.830Z,51.36
2022-08-30T10:35:06.522Z,51.56
2022-08-30T10:36:43.628Z,51.76
2022-08-30T10:38:31.149Z,51.75
2022-08-30T10:40:24.335Z,51.65
2022-08-30T10:42:03.612Z,51.94
2022-08-30T10:43:42.263Z,51.70
2022-08-30T10:45:15.094Z,52.28
2022-08-30T10:46:58.771Z,52.35
2022-08-30T10:48:31.580Z,52.31
2022-08-30T10:50:06.466Z,51.92
2022-08-30T10:52:01.676Z,52.09
2022-08-30T10:53:37.435Z,52.07
2022-08-30T10:55:23.540Z,52.01
2022-08-30T10:56:55.269Z,51.89
2022-08-30T10:58:26.956Z,51.90
2022-08-30T11:00:01.315Z,51.86
2022-08-30T11:01:56.575Z,51.89
2022-08-30T11:03:47.254Z,52.08
2022-08-30T11:05:24.714Z,51.65
2022-08-30T11:07:09.980Z,51.92
2022-08-30T11:08:45.280Z,52.29
2022-08-30T11:10:17.427Z,52.18
2022-08-30T11:11:58.367Z,51.79
2022-08-30T11:13:31.072Z,51.91
2022-08-30T11:15:32.012Z,52.26
2022-08-30T11:17:03.730Z,51.99
2022-08-30T11:18:45.715Z,52.24
2022-08-30T11:20:24.726Z,52.01
2022-08-30T11:22:12.212Z,51.84
2022-08-30T11:23:57.907Z,52.16
2022-08-30T11:25:59.864Z,52.32
2022-08-30T11:27:41.444Z,52.46
2022-08-30T11:29:32.936Z,52.31
2022-08-30T11:31:09.078Z,51.96
2022-08-30T11:33:00.367Z,52.29
2022-08-30T11:34:56.959Z,52.13
2022-08-30T11:36:37.679Z,52.51
2022-08-30T11:38:14.134Z,52.52
2022-08-30T11:39:49.052Z,52.63
2022-08-30T11:41:30.033Z,53.00
2022-08-30T11:43:01.780Z,52.86
2022-08-30T11:44:33.588Z,52.99
2022-08-30T11:46:15.400Z,53.01
2022-08-30T11:47:48.526Z,53.13
2022-08-30T11:49:20.701Z,53.20
2022-08-30T11:50:58.287Z,53.16
2022-08-30T11:52:30.215Z,53.21
2022-08-30T11:54:01.933Z,53.03
2022-08-30T11:55:42.532Z,53.06
2022-08-30T11:57:35.670Z,53.05
2022-08-30T11:59:22.702Z,53.14
2022-08-30T12:01:38.626Z,53.26
2022-08-30T12:03:07.734Z,53.21
2022-08-30T12:04:46.156Z,53.26
2022-08-30T12:06:37.996Z,53.43
2022-08-30T12:08:11.031Z,53.34
2022-08-30T12:09:45.951Z,53.38
2022-08-30T12:11:17.768Z,53.36
2022-08-30T12:12:51.015Z,53.57
2022-08-30T12:14:34.842Z,53.60
2022-08-30T12:16:22.713Z,53.82
2022-08-30T12:18:16.104Z,53.74
2022-08-30T12:19:50.640Z,53.90
2022-08-30T12:21:22.429Z,53.94
2022-08-30T12:22:54.909Z,54.15
2022-08-30T12:24:32.730Z,54.15
2022-08-30T12:26:11.043Z,54.37
2022-08-30T12:27:43.002Z,54.35
2022-08-30T12:29:17.224Z,54.34
2022-08-30T12:30:49.647Z,54.40
2022-08-30T12:32:22.710Z,54.40
2022-08-30T12:34:00.582Z,54.42
2022-08-30T12:35:32.636Z,54.49
2022-08-30T12:37:05.520Z,54.62
2022-08-30T12:38:38.500Z,54.33
2022-08-30T12:40:10.628Z,54.49
2022-08-30T12:41:44.885Z,54.40
2022-08-30T12:43:27.461Z,54.34
2022-08-30T12:45:12.917Z,54.38
2022-08-30T12:46:45.904Z,54.38
2022-08-30T12:48:18.890Z,54.29
2022-08-30T12:49:51.466Z,54.36
2022-08-30T12:51:42.231Z,54.34
2022-08-30T12:53:14.422Z,54.40
2022-08-30T12:54:46.739Z,54.31
2022-08-30T12:56:35.052Z,54.35
2022-08-30T12:58:11.916Z,54.24
2022-08-30T12:59:48.818Z,54.08
2022-08-30T13:01:25.434Z,54.24
2022-08-30T13:02:58.237Z,54.07
2022-08-30T13:04:30.487Z,54.02
2022-08-30T13:06:02.754Z,53.62
2022-08-30T13:07:35.507Z,53.59
2022-08-30T13:09:07.355Z,53.81
2022-08-30T13:10:48.983Z,53.39
2022-08-30T13:12:21.977Z,53.43
2022-08-30T13:13:58.576Z,53.43
2022-08-30T13:15:32.682Z,53.19
2022-08-30T13:17:08.578Z,53.41
2022-08-30T13:18:41.963Z,53.08
2022-08-30T13:20:16.358Z,53.06
2022-08-30T13:21:51.915Z,53.06
2022-08-30T13:23:24.021Z,53.02
2022-08-30T13:24:55.895Z,53.29
2022-08-30T13:26:28.965Z,52.97
2022-08-30T13:28:01.170Z,53.18
2022-08-30T13:29:33.093Z,52.73
2022-08-30T13:31:04.902Z,52.72
2022-08-30T13:32:39.040Z,52.92
2022-08-30T13:34:10.872Z,53.04
2022-08-30T13:35:43.229Z,52.83
2022-08-30T13:39:08.315Z,53.07
2022-08-30T13:40:40.404Z,52.96
2022-08-30T13:44:14.281Z,52.99
2022-08-30T13:45:47.614Z,53.25
2022-08-30T13:47:35.446Z,53.58
2022-08-30T13:49:43.179Z,53.51
2022-08-30T13:51:01.103Z,53.34
2022-08-30T13:52:32.945Z,53.61
2022-08-30T13:54:04.979Z,53.67
2022-08-30T13:55:37.598Z,53.50
2022-08-30T13:57:09.707Z,53.50
2022-08-30T13:58:42.622Z,53.36
2022-08-30T14:00:18.027Z,53.51
2022-08-30T14:06:04.932Z,53.55
2022-08-30T14:07:26.570Z,53.53
2022-08-30T14:09:03.802Z,53.64
2022-08-30T14:10:46.565Z,53.63
2022-08-30T14:12:52.377Z,53.64
2022-08-30T14:14:32.342Z,53.69
2022-08-30T14:17:54.890Z,53.73
2022-08-30T14:19:26.622Z,53.56
2022-08-30T14:20:59.608Z,53.68
2022-08-30T14:22:31.276Z,53.42
2022-08-30T14:24:05.309Z,53.63
2022-08-30T14:25:36.960Z,53.91
2022-08-30T14:27:08.720Z,53.69
2022-08-30T14:28:40.425Z,53.70
2022-08-30T14:30:12.437Z,54.02
2022-08-30T14:31:44.534Z,53.93
2022-08-30T14:33:17.472Z,54.13
2022-08-30T14:34:49.671Z,54.46
2022-08-30T14:36:22.864Z,54.06
2022-08-30T14:37:54.661Z,54.13
2022-08-30T14:39:26.512Z,53.97
2022-08-30T14:40:58.236Z,54.04
2022-08-30T14:42:32.603Z,54.12
2022-08-30T14:44:04.413Z,54.12
2022-08-30T14:45:37.817Z,54.34
2022-08-30T14:47:10.213Z,54.47
2022-08-30T14:48:43.039Z,54.04
2022-08-30T14:50:15.351Z,54.02
2022-08-30T14:51:48.605Z,54.38
2022-08-30T14:53:20.227Z,54.36
2022-08-30T14:54:57.143Z,54.11
2022-08-30T14:56:30.320Z,54.03
2022-08-30T14:58:01.974Z,53.91
2022-08-30T14:59:38.916Z,53.85
2022-08-30T15:01:12.309Z,53.66
2022-08-30T15:02:44.417Z,53.84
2022-08-30T15:04:16.588Z,53.70
2022-08-30T15:05:49.863Z,53.86
2022-08-30T15:07:24.733Z,53.73
2022-08-30T15:08:56.494Z,53.65
2022-08-30T15:10:28.187Z,53.27
2022-08-30T15:12:01.567Z,53.55
2022-08-30T15:13:34.272Z,53.10
2022-08-30T15:15:06.904Z,53.36
2022-08-30T15:16:41.070Z,53.22
2022-08-30T15:18:12.874Z,53.26
2022-08-30T15:19:45.541Z,53.17
2022-08-30T15:21:34.415Z,53.18
2022-08-30T15:23:07.349Z,53.29
2022-08-30T15:24:40.971Z,53.56
2022-08-30T15:26:12.546Z,53.36
2022-08-30T15:27:44.222Z,53.31
2022-08-30T15:29:17.483Z,53.54
2022-08-30T15:30:49.403Z,53.62
2022-08-30T15:32:21.086Z,53.15
2022-08-30T15:33:52.905Z,53.31
2022-08-30T15:35:24.646Z,53.28
2022-08-30T15:36:56.783Z,53.01
2022-08-30T15:38:29.337Z,53.31
2022-08-30T15:40:01.132Z,53.06
2022-08-30T15:41:37.706Z,52.96
2022-08-30T15:43:11.918Z,53.07
2022-08-30T15:44:43.780Z,53.04
2022-08-30T15:46:17.139Z,53.19
2022-08-30T15:47:48.917Z,53.37
2022-08-30T15:49:21.102Z,53.46
2022-08-30T15:50:58.550Z,53.40
2022-08-30T15:52:30.756Z,53.25
2022-08-30T15:54:04.570Z,53.23
2022-08-30T15:55:36.228Z,53.42
2022-08-30T15:57:07.927Z,52.90
2022-08-30T15:58:39.529Z,53.31
2022-08-30T16:00:12.608Z,53.00
2022-08-30T16:01:47.388Z,53.67
2022-08-30T16:03:19.991Z,53.65
2022-08-30T16:04:51.794Z,53.68
2022-08-30T16:06:26.070Z,53.58
2022-08-30T16:07:58.392Z,53.55
2022-08-30T16:09:32.676Z,53.95
2022-08-30T16:11:05.804Z,54.02
2022-08-30T16:12:38.448Z,53.44
2022-08-30T16:14:11.518Z,53.89
2022-08-30T16:15:47.298Z,53.74
2022-08-30T16:17:19.142Z,53.73
2022-08-30T16:18:53.602Z,53.76
2022-08-30T16:20:26.421Z,53.43
2022-08-30T16:21:58.671Z,53.76
2022-08-30T16:23:30.641Z,53.76
2022-08-30T16:25:05.394Z,53.59
2022-08-30T16:26:39.332Z,53.51
2022-08-30T16:28:11.326Z,53.44
2022-08-30T16:29:43.261Z,53.49
2022-08-30T16:31:15.483Z,53.43
2022-08-30T16:32:49.571Z,53.37
2022-08-30T16:34:21.455Z,53.32
2022-08-30T16:35:53.849Z,53.56
2022-08-30T16:37:25.667Z,53.50
2022-08-30T16:38:58.632Z,53.58
2022-08-30T16:40:30.892Z,53.31
2022-08-30T16:42:03.439Z,53.62
2022-08-30T16:43:38.889Z,53.33
2022-08-30T16:45:11.139Z,53.27
2022-08-30T16:46:42.970Z,53.35
2022-08-30T16:48:15.594Z,52.80
2022-08-30T16:49:47.932Z,53.16
2022-08-30T16:51:20.686Z,52.98
2022-08-30T16:52:52.724Z,53.08
2022-08-30T16:54:24.879Z,52.76
2022-08-30T16:55:56.836Z,52.96
2022-08-30T16:57:28.657Z,52.89
2022-08-30T16:59:02.957Z,52.62
2022-08-30T17:00:35.018Z,52.57
2022-08-30T17:02:08.412Z,52.44
2022-08-30T17:03:43.483Z,52.45
2022-08-30T17:05:15.158Z,52.22
2022-08-30T17:06:48.378Z,52.23
2022-08-30T17:08:21.599Z,52.19
2022-08-30T17:09:53.837Z,51.85
2022-08-30T17:11:25.925Z,51.88
2022-08-30T17:12:58.412Z,51.85
2022-08-30T17:14:30.178Z,51.86
2022-08-30T17:16:03.513Z,51.74
2022-08-30T17:17:35.637Z,52.10
2022-08-30T17:19:07.602Z,52.10
2022-08-30T17:20:39.279Z,51.82
2022-08-30T17:22:11.772Z,51.72
2022-08-30T17:23:43.664Z,51.63
2022-08-30T17:25:16.512Z,51.55
2022-08-30T17:26:48.203Z,51.58
2022-08-30T17:28:21.856Z,51.54
2022-08-30T17:29:53.890Z,51.27
2022-08-30T17:31:29.207Z,51.27
2022-08-30T17:33:01.110Z,51.36
2022-08-30T17:34:32.914Z,51.63
2022-08-30T17:36:05.159Z,51.41
2022-08-30T17:37:36.778Z,51.55
2022-08-30T17:39:10.827Z,51.41
2022-08-30T17:40:44.183Z,51.57
2022-08-30T17:42:16.621Z,51.63
2022-08-30T17:43:48.572Z,51.42
2022-08-30T17:45:20.838Z,51.68
2022-08-30T17:46:53.644Z,51.76
2022-08-30T17:48:25.447Z,51.76
2022-08-30T17:49:58.074Z,51.74
2022-08-30T17:51:30.805Z,51.65
2022-08-30T17:53:03.498Z,51.82
2022-08-30T17:54:35.198Z,51.71
2022-08-30T17:56:07.113Z,51.88
2022-08-30T17:57:42.064Z,51.78
2022-08-30T17:59:17.788Z,51.96
2022-08-30T18:00:50.371Z,51.97
2022-08-30T18:02:27.799Z,52.01
2022-08-30T18:04:06.377Z,51.92
2022-08-30T18:05:38.525Z,51.86
2022-08-30T18:07:14.307Z,51.80
2022-08-30T18:08:46.438Z,51.88
2022-08-30T18:10:17.981Z,51.80
2022-08-30T18:11:49.846Z,51.87
2022-08-30T18:13:21.474Z,51.87
2022-08-30T18:14:54.245Z,52.07
2022-08-30T18:16:26.615Z,52.06
2022-08-30T18:17:58.687Z,52.05
2022-08-30T18:19:30.538Z,52.00
2022-08-30T18:21:02.144Z,51.91
2022-08-30T18:22:34.059Z,51.83
2022-08-30T18:24:06.585Z,52.04
2022-08-30T18:25:39.914Z,52.06
2022-08-30T18:27:13.416Z,52.28
2022-08-30T18:28:45.258Z,52.47
2022-08-30T18:30:17.072Z,52.63
2022-08-30T18:31:48.697Z,52.72
2022-08-30T18:33:21.819Z,52.51
2022-08-30T18:34:56.564Z,52.55
2022-08-30T18:36:29.533Z,52.51
2022-08-30T18:38:01.198Z,52.72
2022-08-30T18:39:34.293Z,52.72
2022-08-30T18:41:07.514Z,52.67
2022-08-30T18:42:40.181Z,52.82
2022-08-30T18:44:27.243Z,52.90
2022-08-30T18:46:06.477Z,52.92
2022-08-30T18:47:41.150Z,52.86
2022-08-30T18:49:16.852Z,52.77
2022-08-30T18:50:49.286Z,52.79
2022-08-30T18:52:21.104Z,52.97
2022-08-30T18:53:53.229Z,52.94
2022-08-30T18:55:24.991Z,53.03
2022-08-30T18:56:57.097Z,53.17
2022-08-30T18:58:28.792Z,53.03
2022-08-30T19:00:01.046Z,53.01
2022-08-30T19:01:33.019Z,53.15
2022-08-30T19:03:04.893Z,53.15
2022-08-30T19:04:36.584Z,53.34
2022-08-30T19:06:09.609Z,53.44
2022-08-30T19:07:42.115Z,53.36
2022-08-30T19:09:13.790Z,53.36
2022-08-30T19:10:45.377Z,53.33
2022-08-30T19:12:17.060Z,53.29
2022-08-30T19:13:49.555Z,53.37
2022-08-30T19:15:23.080Z,53.35
2022-08-30T19:16:56.408Z,53.35
2022-08-30T19:18:28.572Z,53.42
2022-08-30T19:20:01.178Z,53.22
2022-08-30T19:21:33.238Z,53.60
2022-08-30T19:23:23.033Z,53.48
2022-08-30T19:24:55.317Z,53.51
2022-08-30T19:26:27.588Z,53.50
2022-08-30T19:27:59.458Z,53.34
2022-08-30T19:29:31.308Z,53.42
2022-08-30T19:31:03.812Z,53.38
2022-08-30T19:32:38.178Z,53.27
2022-08-30T19:34:10.224Z,53.34
2022-08-30T19:35:42.330Z,53.46
2022-08-30T19:37:14.799Z,53.43
2022-08-30T19:38:50.496Z,53.64
2022-08-30T19:40:22.255Z,53.61
2022-08-30T19:41:53.909Z,53.61
2022-08-30T19:43:27.319Z,53.46
2022-08-30T19:45:02.844Z,53.58
2022-08-30T19:46:34.613Z,53.57
2022-08-30T19:48:07.098Z,53.70
2022-08-30T19:49:39.636Z,53.50
2022-08-30T19:51:11.590Z,53.50
2022-08-30T19:52:52.645Z,53.64
2022-08-30T19:54:25.895Z,53.74
2022-08-30T19:55:57.950Z,53.73
2022-08-30T19:57:30.065Z,53.69
2022-08-30T19:59:01.715Z,53.83
2022-08-30T20:00:33.362Z,53.72
2022-08-30T20:02:08.024Z,53.76
2022-08-30T20:03:39.880Z,53.88
2022-08-30T20:05:12.606Z,53.80
2022-08-30T20:06:45.347Z,53.92
2022-08-30T20:08:17.060Z,53.89
2022-08-30T20:09:49.203Z,54.12
2022-08-30T20:11:21.263Z,53.98
2022-08-30T20:12:54.747Z,54.07
2022-08-30T20:14:26.343Z,54.10
2022-08-30T20:15:58.041Z,54.17
2022-08-30T20:17:47.537Z,54.20
2022-08-30T20:19:27.459Z,54.24
2022-08-30T20:20:59.801Z,54.16
2022-08-30T20:22:31.651Z,54.10